sensor_id;sensor_type;location;lat;lon;timestamp;P1;durP1;ratioP1;P2;durP2;ratioP2
20458;SDS011;10388;52.314;7.938;2023-02-28T00:01:23;9.23;;;6.33;;
20458;SDS011;10388;52.314;7.938;2023-02-28T00:03:55;11.47;;;5.93;;
20458;SDS011;10388;52.314;7.938;2023-02-28T00:06:26;8.40;;;5.83;;
20458;SDS011;10388;52.314;7.938;2023-02-28T00:08:57;7.80;;;5.60;;
20458;SDS011;10388;52.314;7.938;2023-02-28T00:11:27;10.17;;;5.47;;
20458;SDS011;10388;52.314;7.938;2023-02-28T00:13:58;11.33;;;5.87;;
20458;SDS011;10388;52.314;7.938;2023-02-28T00:16:28;9.60;;;6.40;;
20458;SDS011;10388;52.314;7.938;2023-02-28T00:18:59;8.10;;;6.10;;
20458;SDS011;10388;52.314;7.938;2023-02-28T00:21:29;9.63;;;6.40;;
20458;SDS011;10388;52.314;7.938;2023-02-28T00:24:00;9.50;;;5.90;;
20458;SDS011;10388;52.314;7.938;2023-02-28T00:26:30;11.47;;;6.33;;
20458;SDS011;10388;52.314;7.938;2023-02-28T00:29:01;8.47;;;5.87;;
20458;SDS011;10388;52.314;7.938;2023-02-28T00:31:31;8.23;;;6.13;;
20458;SDS011;10388;52.314;7.938;2023-02-28T00:34:02;8.27;;;6.17;;
20458;SDS011;10388;52.314;7.938;2023-02-28T00:36:32;8.27;;;6.43;;
20458;SDS011;10388;52.314;7.938;2023-02-28T00:39:03;8.83;;;5.57;;
20458;SDS011;10388;52.314;7.938;2023-02-28T00:41:34;10.67;;;5.90;;
20458;SDS011;10388;52.314;7.938;2023-02-28T00:44:04;13.20;;;5.80;;
20458;SDS011;10388;52.314;7.938;2023-02-28T00:46:35;8.47;;;5.90;;
20458;SDS011;10388;52.314;7.938;2023-02-28T00:49:05;10.53;;;5.90;;
20458;SDS011;10388;52.314;7.938;2023-02-28T00:51:36;7.77;;;6.23;;
20458;SDS011;10388;52.314;7.938;2023-02-28T00:54:06;8.83;;;6.10;;
20458;SDS011;10388;52.314;7.938;2023-02-28T00:56:37;9.60;;;5.60;;
20458;SDS011;10388;52.314;7.938;2023-02-28T00:59:07;9.63;;;5.50;;
20458;SDS011;10388;52.314;7.938;2023-02-28T04:32:46;9.43;;;7.40;;
20458;SDS011;10388;52.314;7.938;2023-02-28T04:35:16;9.97;;;7.30;;
20458;SDS011;10388;52.314;7.938;2023-02-28T04:37:47;10.93;;;7.60;;
20458;SDS011;10388;52.314;7.938;2023-02-28T04:40:17;12.93;;;7.27;;
20458;SDS011;10388;52.314;7.938;2023-02-28T04:42:48;12.77;;;8.30;;
20458;SDS011;10388;52.314;7.938;2023-02-28T04:45:18;10.27;;;7.17;;
20458;SDS011;10388;52.314;7.938;2023-02-28T04:47:49;12.43;;;7.50;;
20458;SDS011;10388;52.314;7.938;2023-02-28T04:50:20;9.53;;;6.77;;
20458;SDS011;10388;52.314;7.938;2023-02-28T04:52:50;10.57;;;7.13;;
20458;SDS011;10388;52.314;7.938;2023-02-28T04:55:21;13.73;;;7.83;;
20458;SDS011;10388;52.314;7.938;2023-02-28T04:57:51;10.30;;;7.20;;
20458;SDS011;10388;52.314;7.938;2023-02-28T05:00:22;8.37;;;6.67;;
20458;SDS011;10388;52.314;7.938;2023-02-28T05:02:52;15.60;;;8.33;;
20458;SDS011;10388;52.314;7.938;2023-02-28T05:05:23;9.37;;;6.97;;
20458;SDS011;10388;52.314;7.938;2023-02-28T05:07:53;9.63;;;6.63;;
20458;SDS011;10388;52.314;7.938;2023-02-28T05:10:25;10.97;;;7.10;;
20458;SDS011;10388;52.314;7.938;2023-02-28T05:12:56;9.23;;;7.10;;
20458;SDS011;10388;52.314;7.938;2023-02-28T05:15:26;11.97;;;7.23;;
20458;SDS011;10388;52.314;7.938;2023-02-28T05:17:57;16.07;;;8.07;;
20458;SDS011;10388;52.314;7.938;2023-02-28T05:20:27;11.07;;;8.07;;
20458;SDS011;10388;52.314;7.938;2023-02-28T05:22:58;13.27;;;7.37;;
20458;SDS011;10388;52.314;7.938;2023-02-28T05:25:30;11.47;;;7.57;;
20458;SDS011;10388;52.314;7.938;2023-02-28T05:28:00;13.80;;;8.63;;
20458;SDS011;10388;52.314;7.938;2023-02-28T05:30:31;11.07;;;7.43;;
20458;SDS011;10388;52.314;7.938;2023-02-28T05:33:02;16.00;;;7.90;;
20458;SDS011;10388;52.314;7.938;2023-02-28T05:35:32;9.17;;;7.50;;
20458;SDS011;10388;52.314;7.938;2023-02-28T05:38:03;14.70;;;7.63;;
20458;SDS011;10388;52.314;7.938;2023-02-28T05:40:33;11.20;;;7.43;;
20458;SDS011;10388;52.314;7.938;2023-02-28T05:43:04;12.87;;;8.03;;
20458;SDS011;10388;52.314;7.938;2023-02-28T05:45:35;11.40;;;8.37;;
20458;SDS011;10388;52.314;7.938;2023-02-28T05:48:05;10.83;;;7.37;;
20458;SDS011;10388;52.314;7.938;2023-02-28T05:50:36;11.57;;;7.50;;
20458;SDS011;10388;52.314;7.938;2023-02-28T05:53:06;10.97;;;6.87;;
20458;SDS011;10388;52.314;7.938;2023-02-28T05:55:37;11.83;;;8.03;;
20458;SDS011;10388;52.314;7.938;2023-02-28T05:58:08;11.83;;;7.77;;
20458;SDS011;10388;52.314;7.938;2023-02-28T06:00:38;11.63;;;7.53;;
20458;SDS011;10388;52.314;7.938;2023-02-28T06:03:09;10.67;;;7.93;;
20458;SDS011;10388;52.314;7.938;2023-02-28T06:05:39;11.83;;;7.97;;
20458;SDS011;10388;52.314;7.938;2023-02-28T06:08:10;11.27;;;7.87;;
20458;SDS011;10388;52.314;7.938;2023-02-28T06:10:40;9.27;;;6.90;;
20458;SDS011;10388;52.314;7.938;2023-02-28T06:13:11;9.93;;;7.33;;
20458;SDS011;10388;52.314;7.938;2023-02-28T06:15:42;11.63;;;7.80;;
20458;SDS011;10388;52.314;7.938;2023-02-28T06:18:13;13.53;;;7.03;;
20458;SDS011;10388;52.314;7.938;2023-02-28T06:20:43;10.73;;;6.93;;
20458;SDS011;10388;52.314;7.938;2023-02-28T06:23:14;10.73;;;7.20;;
20458;SDS011;10388;52.314;7.938;2023-02-28T06:25:45;11.80;;;7.40;;
20458;SDS011;10388;52.314;7.938;2023-02-28T06:28:16;12.07;;;7.57;;
20458;SDS011;10388;52.314;7.938;2023-02-28T06:30:46;11.17;;;7.77;;
20458;SDS011;10388;52.314;7.938;2023-02-28T06:33:17;10.40;;;7.20;;
20458;SDS011;10388;52.314;7.938;2023-02-28T06:35:49;19.93;;;7.93;;
20458;SDS011;10388;52.314;7.938;2023-02-28T06:38:20;9.63;;;7.27;;
20458;SDS011;10388;52.314;7.938;2023-02-28T06:40:54;15.00;;;7.87;;
20458;SDS011;10388;52.314;7.938;2023-02-28T06:43:25;12.93;;;7.23;;
20458;SDS011;10388;52.314;7.938;2023-02-28T06:46:00;11.20;;;6.87;;
20458;SDS011;10388;52.314;7.938;2023-02-28T06:48:33;10.73;;;7.00;;
20458;SDS011;10388;52.314;7.938;2023-02-28T06:51:05;12.20;;;7.33;;
20458;SDS011;10388;52.314;7.938;2023-02-28T06:53:38;10.37;;;7.33;;
20458;SDS011;10388;52.314;7.938;2023-02-28T06:56:10;11.10;;;7.80;;
20458;SDS011;10388;52.314;7.938;2023-02-28T06:58:45;9.90;;;7.57;;
20458;SDS011;10388;52.314;7.938;2023-02-28T07:01:17;9.83;;;7.20;;
20458;SDS011;10388;52.314;7.938;2023-02-28T07:03:48;9.93;;;6.93;;
20458;SDS011;10388;52.314;7.938;2023-02-28T07:06:22;9.57;;;6.97;;
20458;SDS011;10388;52.314;7.938;2023-02-28T07:08:53;11.20;;;7.23;;
20458;SDS011;10388;52.314;7.938;2023-02-28T07:11:25;11.07;;;7.90;;
20458;SDS011;10388;52.314;7.938;2023-02-28T07:13:57;9.93;;;7.47;;
20458;SDS011;10388;52.314;7.938;2023-02-28T07:16:27;12.23;;;7.73;;
20458;SDS011;10388;52.314;7.938;2023-02-28T07:18:58;12.00;;;7.83;;
20458;SDS011;10388;52.314;7.938;2023-02-28T07:21:29;12.77;;;8.10;;
20458;SDS011;10388;52.314;7.938;2023-02-28T07:23:59;14.60;;;8.83;;
20458;SDS011;10388;52.314;7.938;2023-02-28T07:26:30;12.97;;;8.73;;
20458;SDS011;10388;52.314;7.938;2023-02-28T07:29:00;12.60;;;9.63;;
20458;SDS011;10388;52.314;7.938;2023-02-28T07:31:32;14.23;;;9.30;;
20458;SDS011;10388;52.314;7.938;2023-02-28T07:34:02;13.00;;;9.63;;
20458;SDS011;10388;52.314;7.938;2023-02-28T07:36:33;13.53;;;9.87;;
20458;SDS011;10388;52.314;7.938;2023-02-28T07:39:04;15.13;;;9.93;;
20458;SDS011;10388;52.314;7.938;2023-02-28T07:41:34;16.97;;;9.77;;
20458;SDS011;10388;52.314;7.938;2023-02-28T07:44:09;13.67;;;9.23;;
20458;SDS011;10388;52.314;7.938;2023-02-28T07:46:41;15.53;;;9.07;;
20458;SDS011;10388;52.314;7.938;2023-02-28T07:49:11;12.97;;;9.17;;
20458;SDS011;10388;52.314;7.938;2023-02-28T07:51:42;14.40;;;9.60;;
20458;SDS011;10388;52.314;7.938;2023-02-28T07:54:12;13.93;;;9.30;;
20458;SDS011;10388;52.314;7.938;2023-02-28T07:56:43;17.40;;;10.70;;
20458;SDS011;10388;52.314;7.938;2023-02-28T07:59:13;13.00;;;9.23;;
20458;SDS011;10388;52.314;7.938;2023-02-28T08:01:44;15.93;;;10.60;;
20458;SDS011;10388;52.314;7.938;2023-02-28T08:04:14;15.17;;;10.33;;
20458;SDS011;10388;52.314;7.938;2023-02-28T08:06:45;13.47;;;9.63;;
20458;SDS011;10388;52.314;7.938;2023-02-28T08:09:16;13.23;;;9.70;;
20458;SDS011;10388;52.314;7.938;2023-02-28T08:11:46;14.50;;;9.90;;
20458;SDS011;10388;52.314;7.938;2023-02-28T08:14:17;16.67;;;9.87;;
20458;SDS011;10388;52.314;7.938;2023-02-28T08:16:47;14.50;;;9.20;;
20458;SDS011;10388;52.314;7.938;2023-02-28T08:19:18;12.50;;;8.67;;
20458;SDS011;10388;52.314;7.938;2023-02-28T08:21:48;11.73;;;8.77;;
20458;SDS011;10388;52.314;7.938;2023-02-28T08:24:19;11.73;;;8.77;;
20458;SDS011;10388;52.314;7.938;2023-02-28T08:26:49;12.73;;;9.17;;
20458;SDS011;10388;52.314;7.938;2023-02-28T08:29:20;13.93;;;9.00;;
20458;SDS011;10388;52.314;7.938;2023-02-28T08:31:51;11.50;;;7.77;;
20458;SDS011;10388;52.314;7.938;2023-02-28T08:34:22;13.27;;;8.50;;
20458;SDS011;10388;52.314;7.938;2023-02-28T08:36:53;11.33;;;8.93;;
20458;SDS011;10388;52.314;7.938;2023-02-28T08:39:23;12.20;;;8.47;;
20458;SDS011;10388;52.314;7.938;2023-02-28T08:41:54;9.47;;;7.33;;
20458;SDS011;10388;52.314;7.938;2023-02-28T08:44:24;8.60;;;6.40;;
20458;SDS011;10388;52.314;7.938;2023-02-28T08:46:55;9.43;;;6.57;;
20458;SDS011;10388;52.314;7.938;2023-02-28T08:49:26;7.77;;;6.00;;
20458;SDS011;10388;52.314;7.938;2023-02-28T08:51:56;10.37;;;5.90;;
20458;SDS011;10388;52.314;7.938;2023-02-28T08:54:27;7.07;;;5.07;;
20458;SDS011;10388;52.314;7.938;2023-02-28T08:57:00;6.87;;;5.27;;
20458;SDS011;10388;52.314;7.938;2023-02-28T08:59:31;5.47;;;4.37;;
20458;SDS011;10388;52.314;7.938;2023-02-28T09:02:02;7.97;;;4.77;;
20458;SDS011;10388;52.314;7.938;2023-02-28T09:04:33;5.83;;;4.13;;
20458;SDS011;10388;52.314;7.938;2023-02-28T09:07:04;5.40;;;3.97;;
20458;SDS011;10388;52.314;7.938;2023-02-28T09:09:34;6.97;;;4.23;;
20458;SDS011;10388;52.314;7.938;2023-02-28T09:12:05;5.53;;;4.07;;
20458;SDS011;10388;52.314;7.938;2023-02-28T09:14:35;6.73;;;3.83;;
20458;SDS011;10388;52.314;7.938;2023-02-28T09:17:06;4.43;;;3.40;;
20458;SDS011;10388;52.314;7.938;2023-02-28T09:19:37;4.17;;;3.77;;
20458;SDS011;10388;52.314;7.938;2023-02-28T09:22:08;3.17;;;2.80;;
20458;SDS011;10388;52.314;7.938;2023-02-28T09:24:39;2.47;;;2.27;;
20458;SDS011;10388;52.314;7.938;2023-02-28T09:27:10;4.33;;;2.60;;
20458;SDS011;10388;52.314;7.938;2023-02-28T09:29:40;2.37;;;2.17;;
20458;SDS011;10388;52.314;7.938;2023-02-28T09:32:11;2.57;;;2.37;;
20458;SDS011;10388;52.314;7.938;2023-02-28T09:34:41;2.57;;;2.00;;
20458;SDS011;10388;52.314;7.938;2023-02-28T09:37:12;5.07;;;2.23;;
20458;SDS011;10388;52.314;7.938;2023-02-28T09:39:42;2.53;;;1.90;;
20458;SDS011;10388;52.314;7.938;2023-02-28T09:42:21;3.00;;;2.43;;
20458;SDS011;10388;52.314;7.938;2023-02-28T09:44:57;5.83;;;2.23;;
20458;SDS011;10388;52.314;7.938;2023-02-28T09:47:31;2.43;;;1.30;;
20458;SDS011;10388;52.314;7.938;2023-02-28T09:53:04;3.93;;;1.90;;
20458;SDS011;10388;52.314;7.938;2023-02-28T09:55:44;4.57;;;2.93;;
20458;SDS011;10388;52.314;7.938;2023-02-28T09:58:31;4.77;;;2.47;;
20458;SDS011;10388;52.314;7.938;2023-02-28T10:01:21;1.97;;;1.57;;
20458;SDS011;10388;52.314;7.938;2023-02-28T10:06:44;2.93;;;1.13;;
20458;SDS011;10388;52.314;7.938;2023-02-28T10:09:24;1.23;;;0.80;;
20458;SDS011;10388;52.314;7.938;2023-02-28T10:12:00;1.10;;;0.87;;
20458;SDS011;10388;52.314;7.938;2023-02-28T10:14:34;1.50;;;1.40;;
20458;SDS011;10388;52.314;7.938;2023-02-28T10:17:11;1.00;;;1.00;;
20458;SDS011;10388;52.314;7.938;2023-02-28T10:19:50;2.77;;;0.80;;
20458;SDS011;10388;52.314;7.938;2023-02-28T10:22:27;1.47;;;1.20;;
20458;SDS011;10388;52.314;7.938;2023-02-28T10:25:26;2.57;;;1.37;;
20458;SDS011;10388;52.314;7.938;2023-02-28T10:28:00;0.77;;;0.70;;
20458;SDS011;10388;52.314;7.938;2023-02-28T10:30:41;1.97;;;1.00;;
20458;SDS011;10388;52.314;7.938;2023-02-28T10:33:24;2.03;;;0.90;;
20458;SDS011;10388;52.314;7.938;2023-02-28T10:35:59;2.03;;;0.90;;
20458;SDS011;10388;52.314;7.938;2023-02-28T10:38:35;0.80;;;0.80;;
20458;SDS011;10388;52.314;7.938;2023-02-28T10:41:12;1.03;;;0.90;;
20458;SDS011;10388;52.314;7.938;2023-02-28T10:44:18;1.03;;;0.93;;
20458;SDS011;10388;52.314;7.938;2023-02-28T10:46:51;2.17;;;0.90;;
20458;SDS011;10388;52.314;7.938;2023-02-28T10:51:53;1.40;;;0.93;;
20458;SDS011;10388;52.314;7.938;2023-02-28T10:54:30;1.37;;;1.00;;
20458;SDS011;10388;52.314;7.938;2023-02-28T10:57:06;2.23;;;1.30;;
20458;SDS011;10388;52.314;7.938;2023-02-28T10:59:40;2.10;;;0.90;;
20458;SDS011;10388;52.314;7.938;2023-02-28T11:02:28;0.93;;;0.90;;
20458;SDS011;10388;52.314;7.938;2023-02-28T11:05:01;1.50;;;1.23;;
20458;SDS011;10388;52.314;7.938;2023-02-28T11:07:32;1.10;;;1.00;;
20458;SDS011;10388;52.314;7.938;2023-02-28T11:10:03;1.43;;;1.27;;
20458;SDS011;10388;52.314;7.938;2023-02-28T11:15:24;1.40;;;0.83;;
20458;SDS011;10388;52.314;7.938;2023-02-28T11:20:50;1.60;;;1.10;;
20458;SDS011;10388;52.314;7.938;2023-02-28T11:23:25;1.07;;;0.97;;
20458;SDS011;10388;52.314;7.938;2023-02-28T11:25:59;1.00;;;0.83;;
20458;SDS011;10388;52.314;7.938;2023-02-28T11:28:39;3.47;;;2.23;;
20458;SDS011;10388;52.314;7.938;2023-02-28T11:33:54;1.40;;;1.30;;
20458;SDS011;10388;52.314;7.938;2023-02-28T11:36:29;2.07;;;1.80;;
20458;SDS011;10388;52.314;7.938;2023-02-28T11:39:07;2.87;;;1.40;;
20458;SDS011;10388;52.314;7.938;2023-02-28T11:47:32;1.97;;;1.20;;
20458;SDS011;10388;52.314;7.938;2023-02-28T11:55:38;2.07;;;1.40;;
20458;SDS011;10388;52.314;7.938;2023-02-28T11:58:29;2.90;;;2.00;;
20458;SDS011;10388;52.314;7.938;2023-02-28T12:05:03;4.40;;;2.97;;
20458;SDS011;10388;52.314;7.938;2023-02-28T12:19:04;2.07;;;1.70;;
20458;SDS011;10388;52.314;7.938;2023-02-28T12:21:48;2.43;;;1.60;;
20458;SDS011;10388;52.314;7.938;2023-02-28T12:27:00;1.87;;;1.60;;
20458;SDS011;10388;52.314;7.938;2023-02-28T12:29:42;2.57;;;2.10;;
20458;SDS011;10388;52.314;7.938;2023-02-28T12:32:25;2.07;;;1.40;;
20458;SDS011;10388;52.314;7.938;2023-02-28T12:35:12;1.47;;;1.37;;
20458;SDS011;10388;52.314;7.938;2023-02-28T12:40:23;2.83;;;1.97;;
20458;SDS011;10388;52.314;7.938;2023-02-28T12:43:02;4.53;;;1.40;;
20458;SDS011;10388;52.314;7.938;2023-02-28T12:45:43;1.30;;;1.20;;
20458;SDS011;10388;52.314;7.938;2023-02-28T12:51:03;1.57;;;1.30;;
20458;SDS011;10388;52.314;7.938;2023-02-28T12:53:50;1.47;;;1.30;;
20458;SDS011;10388;52.314;7.938;2023-02-28T12:59:01;1.67;;;1.43;;
20458;SDS011;10388;52.314;7.938;2023-02-28T13:04:32;2.77;;;1.50;;
20458;SDS011;10388;52.314;7.938;2023-02-28T13:07:16;1.30;;;1.20;;
20458;SDS011;10388;52.314;7.938;2023-02-28T13:10:03;1.50;;;1.40;;
20458;SDS011;10388;52.314;7.938;2023-02-28T13:12:36;2.97;;;1.33;;
20458;SDS011;10388;52.314;7.938;2023-02-28T13:15:20;1.23;;;1.13;;
20458;SDS011;10388;52.314;7.938;2023-02-28T13:17:58;1.50;;;1.30;;
20458;SDS011;10388;52.314;7.938;2023-02-28T13:20:31;4.30;;;1.53;;
20458;SDS011;10388;52.314;7.938;2023-02-28T13:23:14;2.00;;;1.30;;
20458;SDS011;10388;52.314;7.938;2023-02-28T13:26:11;1.60;;;1.40;;
20458;SDS011;10388;52.314;7.938;2023-02-28T13:31:23;1.63;;;1.53;;
20458;SDS011;10388;52.314;7.938;2023-02-28T13:36:27;1.60;;;1.30;;
20458;SDS011;10388;52.314;7.938;2023-02-28T13:39:00;1.83;;;1.60;;
20458;SDS011;10388;52.314;7.938;2023-02-28T13:44:05;2.03;;;1.50;;
20458;SDS011;10388;52.314;7.938;2023-02-28T13:49:19;2.07;;;1.53;;
20458;SDS011;10388;52.314;7.938;2023-02-28T13:54:53;1.67;;;1.57;;
20458;SDS011;10388;52.314;7.938;2023-02-28T14:06:35;1.47;;;1.37;;
20458;SDS011;10388;52.314;7.938;2023-02-28T14:11:57;2.63;;;1.47;;
20458;SDS011;10388;52.314;7.938;2023-02-28T14:18:15;1.60;;;1.50;;
20458;SDS011;10388;52.314;7.938;2023-02-28T14:21:01;1.87;;;1.60;;
20458;SDS011;10388;52.314;7.938;2023-02-28T14:38:40;1.87;;;1.67;;
20458;SDS011;10388;52.314;7.938;2023-02-28T14:41:23;1.83;;;1.70;;
20458;SDS011;10388;52.314;7.938;2023-02-28T14:44:00;2.00;;;1.80;;
20458;SDS011;10388;52.314;7.938;2023-02-28T14:46:38;2.50;;;1.70;;
20458;SDS011;10388;52.314;7.938;2023-02-28T14:49:13;3.33;;;1.60;;
20458;SDS011;10388;52.314;7.938;2023-02-28T14:51:49;3.37;;;1.80;;
20458;SDS011;10388;52.314;7.938;2023-02-28T14:54:31;2.70;;;1.90;;
20458;SDS011;10388;52.314;7.938;2023-02-28T14:57:02;3.33;;;1.80;;
20458;SDS011;10388;52.314;7.938;2023-02-28T14:59:35;1.90;;;1.70;;
20458;SDS011;10388;52.314;7.938;2023-02-28T15:07:46;1.73;;;1.63;;
20458;SDS011;10388;52.314;7.938;2023-02-28T15:10:20;3.27;;;1.97;;
20458;SDS011;10388;52.314;7.938;2023-02-28T15:13:06;2.03;;;1.60;;
20458;SDS011;10388;52.314;7.938;2023-02-28T15:20:53;2.43;;;1.80;;
20458;SDS011;10388;52.314;7.938;2023-02-28T15:23:25;2.27;;;1.80;;
20458;SDS011;10388;52.314;7.938;2023-02-28T15:25:56;1.60;;;1.50;;
20458;SDS011;10388;52.314;7.938;2023-02-28T15:28:27;3.90;;;1.97;;
20458;SDS011;10388;52.314;7.938;2023-02-28T15:30:59;2.47;;;1.87;;
20458;SDS011;10388;52.314;7.938;2023-02-28T15:33:32;3.27;;;1.77;;
20458;SDS011;10388;52.314;7.938;2023-02-28T15:36:13;2.37;;;1.60;;
20458;SDS011;10388;52.314;7.938;2023-02-28T15:38:45;1.70;;;1.60;;
20458;SDS011;10388;52.314;7.938;2023-02-28T15:41:25;1.93;;;1.50;;
20458;SDS011;10388;52.314;7.938;2023-02-28T15:47:01;1.77;;;1.47;;
20458;SDS011;10388;52.314;7.938;2023-02-28T15:49:39;2.10;;;1.60;;
20458;SDS011;10388;52.314;7.938;2023-02-28T15:52:27;3.17;;;1.80;;
20458;SDS011;10388;52.314;7.938;2023-02-28T15:54:58;2.50;;;1.60;;
20458;SDS011;10388;52.314;7.938;2023-02-28T15:57:29;2.73;;;1.77;;
20458;SDS011;10388;52.314;7.938;2023-02-28T16:00:01;2.27;;;1.80;;
20458;SDS011;10388;52.314;7.938;2023-02-28T16:02:36;3.80;;;1.53;;
20458;SDS011;10388;52.314;7.938;2023-02-28T16:07:38;3.30;;;2.40;;
20458;SDS011;10388;52.314;7.938;2023-02-28T16:10:12;3.17;;;1.93;;
20458;SDS011;10388;52.314;7.938;2023-02-28T16:12:45;2.40;;;1.80;;
20458;SDS011;10388;52.314;7.938;2023-02-28T16:15:20;2.03;;;1.73;;
20458;SDS011;10388;52.314;7.938;2023-02-28T16:17:54;1.47;;;1.37;;
20458;SDS011;10388;52.314;7.938;2023-02-28T16:20:30;2.37;;;1.87;;
20458;SDS011;10388;52.314;7.938;2023-02-28T16:23:00;2.77;;;1.73;;
20458;SDS011;10388;52.314;7.938;2023-02-28T16:25:39;2.80;;;1.70;;
20458;SDS011;10388;52.314;7.938;2023-02-28T16:28:24;2.90;;;1.60;;
20458;SDS011;10388;52.314;7.938;2023-02-28T16:31:02;3.17;;;1.40;;
20458;SDS011;10388;52.314;7.938;2023-02-28T16:33:36;4.33;;;1.30;;
20458;SDS011;10388;52.314;7.938;2023-02-28T16:36:08;1.50;;;1.40;;
20458;SDS011;10388;52.314;7.938;2023-02-28T16:38:42;2.03;;;1.70;;
20458;SDS011;10388;52.314;7.938;2023-02-28T16:41:17;1.70;;;1.53;;
20458;SDS011;10388;52.314;7.938;2023-02-28T16:43:51;1.87;;;1.53;;
20458;SDS011;10388;52.314;7.938;2023-02-28T16:46:23;3.77;;;1.70;;
20458;SDS011;10388;52.314;7.938;2023-02-28T16:48:57;1.70;;;1.40;;
20458;SDS011;10388;52.314;7.938;2023-02-28T16:51:27;2.97;;;1.57;;
20458;SDS011;10388;52.314;7.938;2023-02-28T16:53:58;1.67;;;1.57;;
20458;SDS011;10388;52.314;7.938;2023-02-28T16:56:28;2.87;;;1.50;;
20458;SDS011;10388;52.314;7.938;2023-02-28T16:59:00;1.97;;;1.77;;
20458;SDS011;10388;52.314;7.938;2023-02-28T17:01:31;1.70;;;1.50;;
20458;SDS011;10388;52.314;7.938;2023-02-28T17:04:02;3.97;;;2.03;;
20458;SDS011;10388;52.314;7.938;2023-02-28T17:06:32;2.43;;;1.90;;
20458;SDS011;10388;52.314;7.938;2023-02-28T17:09:03;50.53;;;35.67;;
20458;SDS011;10388;52.314;7.938;2023-02-28T17:11:34;9.20;;;7.90;;
20458;SDS011;10388;52.314;7.938;2023-02-28T17:14:04;4.97;;;4.23;;
20458;SDS011;10388;52.314;7.938;2023-02-28T17:16:35;4.17;;;3.67;;
20458;SDS011;10388;52.314;7.938;2023-02-28T17:19:11;3.80;;;3.27;;
20458;SDS011;10388;52.314;7.938;2023-02-28T17:21:44;3.30;;;2.67;;
20458;SDS011;10388;52.314;7.938;2023-02-28T17:24:15;2.57;;;2.37;;
20458;SDS011;10388;52.314;7.938;2023-02-28T17:26:46;3.47;;;2.50;;
20458;SDS011;10388;52.314;7.938;2023-02-28T17:29:18;4.40;;;3.10;;
20458;SDS011;10388;52.314;7.938;2023-02-28T17:31:49;4.93;;;3.00;;
20458;SDS011;10388;52.314;7.938;2023-02-28T17:34:20;5.80;;;5.20;;
20458;SDS011;10388;52.314;7.938;2023-02-28T17:36:51;4.80;;;3.90;;
20458;SDS011;10388;52.314;7.938;2023-02-28T17:39:22;6.87;;;4.00;;
20458;SDS011;10388;52.314;7.938;2023-02-28T17:41:56;4.80;;;3.50;;
20458;SDS011;10388;52.314;7.938;2023-02-28T17:44:26;4.90;;;3.90;;
20458;SDS011;10388;52.314;7.938;2023-02-28T17:46:58;5.13;;;4.07;;
20458;SDS011;10388;52.314;7.938;2023-02-28T17:49:29;6.97;;;5.83;;
20458;SDS011;10388;52.314;7.938;2023-02-28T17:51:59;4.40;;;3.53;;
20458;SDS011;10388;52.314;7.938;2023-02-28T17:54:30;5.67;;;3.93;;
20458;SDS011;10388;52.314;7.938;2023-02-28T17:57:01;5.47;;;3.50;;
20458;SDS011;10388;52.314;7.938;2023-02-28T17:59:31;5.77;;;3.83;;
20458;SDS011;10388;52.314;7.938;2023-02-28T18:02:05;6.13;;;3.87;;
20458;SDS011;10388;52.314;7.938;2023-02-28T18:04:35;6.60;;;4.20;;
20458;SDS011;10388;52.314;7.938;2023-02-28T18:07:06;5.23;;;4.40;;
20458;SDS011;10388;52.314;7.938;2023-02-28T18:09:40;10.23;;;4.20;;
20458;SDS011;10388;52.314;7.938;2023-02-28T18:12:11;6.03;;;4.03;;
20458;SDS011;10388;52.314;7.938;2023-02-28T18:14:42;5.50;;;4.53;;
20458;SDS011;10388;52.314;7.938;2023-02-28T18:17:12;13.43;;;8.33;;
20458;SDS011;10388;52.314;7.938;2023-02-28T18:19:43;8.70;;;5.30;;
20458;SDS011;10388;52.314;7.938;2023-02-28T18:22:13;8.00;;;5.47;;
20458;SDS011;10388;52.314;7.938;2023-02-28T18:24:44;7.20;;;4.50;;
20458;SDS011;10388;52.314;7.938;2023-02-28T18:27:14;4.27;;;3.77;;
20458;SDS011;10388;52.314;7.938;2023-02-28T18:29:45;4.27;;;3.20;;
20458;SDS011;10388;52.314;7.938;2023-02-28T18:32:15;3.93;;;2.77;;
20458;SDS011;10388;52.314;7.938;2023-02-28T18:34:46;6.80;;;4.77;;
20458;SDS011;10388;52.314;7.938;2023-02-28T18:37:16;4.30;;;3.83;;
20458;SDS011;10388;52.314;7.938;2023-02-28T18:39:48;7.93;;;4.67;;
20458;SDS011;10388;52.314;7.938;2023-02-28T18:42:18;8.77;;;5.47;;
20458;SDS011;10388;52.314;7.938;2023-02-28T18:44:49;9.40;;;5.93;;
20458;SDS011;10388;52.314;7.938;2023-02-28T18:47:19;9.07;;;5.97;;
20458;SDS011;10388;52.314;7.938;2023-02-28T18:49:50;11.47;;;6.57;;
20458;SDS011;10388;52.314;7.938;2023-02-28T18:52:20;11.63;;;7.20;;
20458;SDS011;10388;52.314;7.938;2023-02-28T18:54:51;11.43;;;7.73;;
20458;SDS011;10388;52.314;7.938;2023-02-28T18:57:22;10.63;;;6.70;;
20458;SDS011;10388;52.314;7.938;2023-02-28T18:59:52;13.53;;;7.97;;
20458;SDS011;10388;52.314;7.938;2023-02-28T19:02:23;16.47;;;6.50;;
20458;SDS011;10388;52.314;7.938;2023-02-28T19:04:53;7.17;;;4.83;;
20458;SDS011;10388;52.314;7.938;2023-02-28T19:07:24;4.97;;;4.40;;
20458;SDS011;10388;52.314;7.938;2023-02-28T19:09:55;5.37;;;3.97;;
20458;SDS011;10388;52.314;7.938;2023-02-28T19:12:25;4.80;;;3.27;;
20458;SDS011;10388;52.314;7.938;2023-02-28T19:14:56;5.83;;;3.70;;
20458;SDS011;10388;52.314;7.938;2023-02-28T19:17:26;4.93;;;3.60;;
20458;SDS011;10388;52.314;7.938;2023-02-28T19:19:57;4.70;;;3.47;;
20458;SDS011;10388;52.314;7.938;2023-02-28T19:22:28;4.57;;;3.90;;
20458;SDS011;10388;52.314;7.938;2023-02-28T19:24:59;4.47;;;3.77;;
20458;SDS011;10388;52.314;7.938;2023-02-28T19:27:30;5.80;;;4.10;;
20458;SDS011;10388;52.314;7.938;2023-02-28T19:30:01;5.10;;;4.00;;
20458;SDS011;10388;52.314;7.938;2023-02-28T19:32:33;4.67;;;4.10;;
20458;SDS011;10388;52.314;7.938;2023-02-28T19:35:03;7.30;;;5.03;;
20458;SDS011;10388;52.314;7.938;2023-02-28T19:37:38;5.37;;;4.60;;
20458;SDS011;10388;52.314;7.938;2023-02-28T19:40:09;5.93;;;4.17;;
20458;SDS011;10388;52.314;7.938;2023-02-28T19:42:42;5.60;;;4.67;;
20458;SDS011;10388;52.314;7.938;2023-02-28T19:45:13;5.87;;;4.77;;
20458;SDS011;10388;52.314;7.938;2023-02-28T19:47:43;6.50;;;5.10;;
20458;SDS011;10388;52.314;7.938;2023-02-28T19:50:14;7.93;;;5.10;;
20458;SDS011;10388;52.314;7.938;2023-02-28T19:52:45;8.87;;;5.83;;
20458;SDS011;10388;52.314;7.938;2023-02-28T19:55:18;6.77;;;5.43;;
20458;SDS011;10388;52.314;7.938;2023-02-28T19:57:49;6.83;;;5.47;;
20458;SDS011;10388;52.314;7.938;2023-02-28T20:00:19;8.07;;;5.83;;
20458;SDS011;10388;52.314;7.938;2023-02-28T20:02:50;7.97;;;5.20;;
20458;SDS011;10388;52.314;7.938;2023-02-28T20:05:21;9.07;;;5.73;;
20458;SDS011;10388;52.314;7.938;2023-02-28T20:07:51;11.63;;;5.50;;
20458;SDS011;10388;52.314;7.938;2023-02-28T20:10:22;5.70;;;4.80;;
20458;SDS011;10388;52.314;7.938;2023-02-28T20:12:52;11.57;;;5.20;;
20458;SDS011;10388;52.314;7.938;2023-02-28T20:15:23;6.33;;;4.60;;
20458;SDS011;10388;52.314;7.938;2023-02-28T20:17:53;8.57;;;5.37;;
20458;SDS011;10388;52.314;7.938;2023-02-28T20:20:26;8.10;;;5.40;;
20458;SDS011;10388;52.314;7.938;2023-02-28T20:22:56;7.17;;;5.33;;
20458;SDS011;10388;52.314;7.938;2023-02-28T20:25:27;9.43;;;5.50;;
20458;SDS011;10388;52.314;7.938;2023-02-28T20:27:57;8.83;;;6.70;;
20458;SDS011;10388;52.314;7.938;2023-02-28T20:30:28;7.67;;;5.93;;
20458;SDS011;10388;52.314;7.938;2023-02-28T20:32:58;11.80;;;6.53;;
20458;SDS011;10388;52.314;7.938;2023-02-28T20:35:29;8.73;;;6.33;;
20458;SDS011;10388;52.314;7.938;2023-02-28T20:37:59;8.77;;;5.90;;
20458;SDS011;10388;52.314;7.938;2023-02-28T20:40:30;9.87;;;6.03;;
20458;SDS011;10388;52.314;7.938;2023-02-28T20:43:00;9.50;;;6.37;;
20458;SDS011;10388;52.314;7.938;2023-02-28T20:45:31;9.33;;;6.80;;